createdAt,value
2023-03-02T00:02:32.516Z,99126.94
2023-03-02T00:05:41.990Z,99136.81
2023-03-02T00:08:48.880Z,99138.69
2023-03-02T00:11:55.789Z,99138.59
2023-03-02T00:15:01.716Z,99133.50
2023-03-02T00:18:11.203Z,99137.25
2023-03-02T00:21:17.545Z,99132.91
2023-03-02T00:24:24.259Z,99130.50
2023-03-02T00:27:30.363Z,99123.97
2023-03-02T00:30:37.140Z,99125.88
2023-03-02T00:33:46.406Z,99131.00
2023-03-02T00:36:53.258Z,99134.13
2023-03-02T00:39:59.266Z,99130.91
2023-03-02T00:43:06.144Z,99124.69
2023-03-02T00:46:14.569Z,99128.50
2023-03-02T00:49:23.924Z,99124.66
2023-03-02T00:52:29.905Z,99113.78
2023-03-02T00:55:36.478Z,99110.72
2023-03-02T00:58:42.617Z,99107.72
2023-03-02T01:01:58.414Z,99107.00
2023-03-02T01:05:09.966Z,99104.72
2023-03-02T01:08:16.904Z,99097.75
2023-03-02T01:11:25.984Z,99101.00
2023-03-02T01:14:34.727Z,99097.25
2023-03-02T01:17:41.476Z,99097.63
2023-03-02T01:20:50.601Z,99094.69
2023-03-02T01:23:56.443Z,99085.94
2023-03-02T01:27:06.150Z,99093.31
2023-03-02T01:30:14.339Z,99085.44
2023-03-02T01:33:21.460Z,99077.91
2023-03-02T01:36:30.981Z,99074.31
2023-03-02T01:39:37.919Z,99065.81
2023-03-02T01:43:02.497Z,99073.50
2023-03-02T01:46:17.363Z,99066.97
2023-03-02T01:49:31.647Z,99062.75
2023-03-02T01:52:43.364Z,99055.09
2023-03-02T01:55:50.638Z,99063.75
2023-03-02T01:59:04.330Z,99053.63
2023-03-02T02:02:14.834Z,99046.03
2023-03-02T02:05:28.313Z,99045.50
2023-03-02T02:08:38.102Z,99034.19
2023-03-02T02:11:46.095Z,99036.31
2023-03-02T02:14:54.287Z,99026.91
2023-03-02T02:18:01.010Z,99030.63
2023-03-02T02:21:08.551Z,99033.38
2023-03-02T02:24:28.081Z,99031.91
2023-03-02T02:27:36.780Z,99030.34
2023-03-02T02:30:46.575Z,99033.66
2023-03-02T02:34:00.577Z,99029.63
2023-03-02T02:37:16.531Z,99027.41
2023-03-02T02:40:44.727Z,99023.34
2023-03-02T02:43:58.475Z,99027.41
2023-03-02T02:47:05.861Z,99029.06
2023-03-02T02:50:23.744Z,99029.13
2023-03-02T02:53:38.085Z,99030.81
2023-03-02T02:56:47.439Z,99022.50
2023-03-02T03:00:04.060Z,99018.66
2023-03-02T03:03:31.986Z,99018.88
2023-03-02T03:06:42.418Z,99015.94
2023-03-02T03:10:03.490Z,99013.25
2023-03-02T03:13:11.416Z,99009.81
2023-03-02T03:16:24.057Z,99010.84
2023-03-02T03:19:33.336Z,99006.31
2023-03-02T03:22:42.219Z,99006.69
2023-03-02T03:25:50.048Z,99003.88
2023-03-02T03:28:57.428Z,99005.34
2023-03-02T03:32:08.438Z,98998.44
2023-03-02T03:35:15.762Z,98992.13
2023-03-02T03:38:22.112Z,98989.44
2023-03-02T03:41:30.429Z,98998.78
2023-03-02T03:44:36.564Z,99000.63
2023-03-02T03:47:45.798Z,98991.41
2023-03-02T03:50:52.245Z,98995.13
2023-03-02T03:54:08.542Z,98991.88
2023-03-02T03:57:17.615Z,98995.59
2023-03-02T04:00:26.260Z,98988.84
2023-03-02T04:03:40.029Z,98989.34
2023-03-02T04:06:47.775Z,98986.84
2023-03-02T04:10:03.615Z,98984.41
2023-03-02T04:13:14.141Z,98990.63
2023-03-02T04:16:20.244Z,98984.94
2023-03-02T04:19:29.638Z,98989.75
2023-03-02T04:22:37.308Z,98994.16
2023-03-02T04:25:44.191Z,98979.22
2023-03-02T04:28:54.150Z,98998.72
2023-03-02T04:32:01.705Z,98997.25
2023-03-02T04:35:12.789Z,98995.28
2023-03-02T04:38:19.781Z,98992.34
2023-03-02T04:41:26.667Z,98990.47
2023-03-02T04:44:33.245Z,98988.34
2023-03-02T04:47:39.294Z,98985.03
2023-03-02T04:50:49.019Z,98975.72
2023-03-02T04:53:57.509Z,98963.38
2023-03-02T04:57:04.227Z,98976.44
2023-03-02T05:00:13.147Z,98972.03
2023-03-02T05:03:22.242Z,98972.38
2023-03-02T05:06:31.155Z,98968.16
2023-03-02T05:09:39.500Z,98969.06
2023-03-02T05:12:58.359Z,98973.41
2023-03-02T05:16:05.175Z,98976.72
2023-03-02T05:19:18.055Z,98978.31
2023-03-02T05:22:27.280Z,98980.78
2023-03-02T05:25:37.144Z,98985.16
2023-03-02T05:28:47.077Z,98978.66
2023-03-02T05:31:53.574Z,98980.72
2023-03-02T05:35:00.661Z,98978.75
2023-03-02T05:38:09.454Z,98984.78
2023-03-02T05:41:16.062Z,98988.47
2023-03-02T05:44:22.109Z,98989.75
2023-03-02T05:47:28.764Z,98977.56
2023-03-02T05:50:34.999Z,98983.16
2023-03-02T05:53:44.180Z,98982.13
2023-03-02T05:56:50.444Z,98994.97
2023-03-02T05:59:57.048Z,98989.88
2023-03-02T06:03:06.358Z,98989.44
2023-03-02T06:06:14.453Z,98992.59
2023-03-02T06:09:22.997Z,98998.22
2023-03-02T06:12:29.834Z,98991.88
2023-03-02T06:15:35.744Z,99008.22
2023-03-02T06:18:46.149Z,99007.66
2023-03-02T06:21:51.929Z,99009.22
2023-03-02T06:25:01.077Z,99010.53
2023-03-02T06:28:09.852Z,99005.06
2023-03-02T06:31:16.451Z,99015.47
2023-03-02T06:34:22.274Z,99007.94
2023-03-02T06:37:28.991Z,99008.09
2023-03-02T06:40:40.015Z,99002.09
2023-03-02T06:43:46.840Z,99001.97
2023-03-02T06:46:52.661Z,98999.56
2023-03-02T06:49:59.495Z,99006.34
2023-03-02T06:53:05.758Z,98987.63
2023-03-02T06:56:14.979Z,99003.16
2023-03-02T06:59:20.731Z,99002.31
2023-03-02T07:02:27.332Z,98994.19
2023-03-02T07:05:34.051Z,98996.84
2023-03-02T07:08:40.635Z,98997.34
2023-03-02T07:11:49.069Z,98992.28
2023-03-02T07:14:55.608Z,99002.88
2023-03-02T07:18:01.604Z,99004.88
2023-03-02T07:21:09.334Z,99001.34
2023-03-02T07:24:15.118Z,98996.03
2023-03-02T07:27:24.535Z,98994.72
2023-03-02T07:30:32.743Z,98985.25
2023-03-02T07:33:40.257Z,98978.53
2023-03-02T07:36:45.965Z,98984.38
2023-03-02T07:39:54.224Z,98985.78
2023-03-02T07:43:02.778Z,98983.00
2023-03-02T07:46:09.706Z,98983.19
2023-03-02T07:49:15.601Z,98980.72
2023-03-02T07:52:22.169Z,98976.09
2023-03-02T07:55:28.051Z,98978.38
2023-03-02T07:58:38.902Z,98976.69
2023-03-02T08:01:44.822Z,98971.25
2023-03-02T08:04:52.458Z,98968.88
2023-03-02T08:07:58.275Z,98971.91
2023-03-02T08:11:08.943Z,98963.38
2023-03-02T08:14:17.579Z,98972.91
2023-03-02T08:17:24.282Z,98966.69
2023-03-02T08:20:30.378Z,98964.75
2023-03-02T08:23:37.327Z,98966.56
2023-03-02T08:26:44.853Z,98967.13
2023-03-02T08:29:54.690Z,98970.72
2023-03-02T08:33:04.425Z,98964.78
2023-03-02T08:36:17.837Z,98967.50
2023-03-02T08:39:23.965Z,98960.13
2023-03-02T08:42:30.657Z,98959.28
2023-03-02T08:45:40.805Z,98952.25
2023-03-02T08:48:48.305Z,98953.06
2023-03-02T08:51:56.462Z,98945.66
2023-03-02T08:55:04.131Z,98939.44
2023-03-02T08:58:10.078Z,98943.09
2023-03-02T09:01:22.184Z,98935.88
2023-03-02T09:04:28.024Z,98938.97
2023-03-02T09:07:35.814Z,98944.72
2023-03-02T09:10:42.180Z,98940.84
2023-03-02T09:13:49.162Z,98948.09
2023-03-02T09:16:57.555Z,98941.56
2023-03-02T09:20:04.276Z,98934.09
2023-03-02T09:23:11.202Z,98935.34
2023-03-02T09:26:17.968Z,98932.88
2023-03-02T09:29:23.824Z,98933.88
2023-03-02T09:32:33.351Z,98928.63
2023-03-02T09:35:42.131Z,98928.88
2023-03-02T09:38:48.803Z,98926.53
2023-03-02T09:42:44.397Z,98917.84
2023-03-02T09:46:11.740Z,98923.41
2023-03-02T09:49:35.816Z,98915.38
2023-03-02T09:52:53.668Z,98920.41
2023-03-02T09:56:02.649Z,98917.13
2023-03-02T09:59:24.078Z,98903.84
2023-03-02T10:02:38.367Z,98904.97
2023-03-02T10:05:51.163Z,98906.69
2023-03-02T10:08:58.119Z,98900.25
2023-03-02T10:12:45.107Z,98897.19
2023-03-02T10:16:11.643Z,98894.91
2023-03-02T10:19:28.699Z,98896.19
2023-03-02T10:22:49.486Z,98886.25
2023-03-02T10:26:05.421Z,98881.03
2023-03-02T10:29:42.751Z,98865.78
2023-03-02T10:32:55.084Z,98872.56
2023-03-02T10:36:01.330Z,98856.06
2023-03-02T10:39:19.346Z,98874.00
2023-03-02T10:42:33.889Z,98868.09
2023-03-02T10:45:40.567Z,98857.53
2023-03-02T10:48:56.367Z,98856.25
2023-03-02T10:52:08.570Z,98854.06
2023-03-02T10:55:20.193Z,98842.59
2023-03-02T10:58:33.624Z,98846.72
2023-03-02T11:01:39.473Z,98829.16
2023-03-02T11:04:46.489Z,98829.31
2023-03-02T11:07:57.703Z,98827.16
2023-03-02T11:11:08.310Z,98821.53
2023-03-02T11:14:20.388Z,98816.66
2023-03-02T11:17:37.455Z,98818.16
2023-03-02T11:20:50.217Z,98812.03
2023-03-02T11:24:12.407Z,98811.88
2023-03-02T11:27:30.657Z,98803.38
2023-03-02T11:30:49.969Z,98799.41
2023-03-02T11:34:18.034Z,98804.94
2023-03-02T11:37:32.994Z,98792.22
2023-03-02T11:40:49.842Z,98788.00
2023-03-02T11:44:04.971Z,98786.59
2023-03-02T11:47:16.295Z,98781.41
2023-03-02T11:50:24.341Z,98774.44
2023-03-02T11:53:44.452Z,98775.53
2023-03-02T11:56:51.291Z,98778.72
2023-03-02T12:00:02.496Z,98776.59
2023-03-02T12:03:41.553Z,98774.53
2023-03-02T12:06:47.347Z,98765.00
2023-03-02T12:10:07.809Z,98763.88
2023-03-02T12:13:26.234Z,98758.66
2023-03-02T12:16:43.254Z,98755.53
2023-03-02T12:19:51.761Z,98755.78
2023-03-02T12:23:11.648Z,98748.84
2023-03-02T12:26:34.054Z,98740.56
2023-03-02T12:29:44.325Z,98737.75
2023-03-02T12:33:07.035Z,98737.06
2023-03-02T12:36:28.087Z,98741.44
2023-03-02T12:40:11.686Z,98735.59
2023-03-02T12:43:32.718Z,98727.69
2023-03-02T12:46:41.121Z,98719.84
2023-03-02T12:50:00.758Z,98694.50
2023-03-02T12:53:10.075Z,98708.06
2023-03-02T12:56:26.995Z,98701.44
2023-03-02T12:59:32.992Z,98694.47
2023-03-02T13:02:40.313Z,98697.44
2023-03-02T13:05:50.169Z,98694.75
2023-03-02T13:09:01.608Z,98691.78
2023-03-02T13:12:08.194Z,98686.09
2023-03-02T13:15:20.501Z,98682.66
2023-03-02T13:18:32.167Z,98678.06
2023-03-02T13:21:42.933Z,98668.44
2023-03-02T13:24:54.810Z,98672.34
2023-03-02T13:28:07.652Z,98671.13
2023-03-02T13:31:28.081Z,98677.38
2023-03-02T13:34:52.717Z,98670.91
2023-03-02T13:38:07.721Z,98666.13
2023-03-02T13:41:25.924Z,98660.41
2023-03-02T13:44:37.632Z,98645.53
2023-03-02T13:47:44.779Z,98644.47
2023-03-02T13:51:03.037Z,98639.84
2023-03-02T13:54:25.073Z,98635.34
2023-03-02T13:57:35.743Z,98633.84
2023-03-02T14:00:43.267Z,98635.13
2023-03-02T14:03:49.226Z,98617.41
2023-03-02T14:06:58.138Z,98627.13
2023-03-02T14:10:07.344Z,98614.66
2023-03-02T14:13:22.806Z,98613.63
2023-03-02T14:16:28.597Z,98601.19
2023-03-02T14:19:35.252Z,98613.88
2023-03-02T14:22:41.063Z,98616.28
2023-03-02T14:25:51.113Z,98601.31
2023-03-02T14:29:05.585Z,98608.47
2023-03-02T14:32:16.024Z,98602.38
2023-03-02T14:35:21.963Z,98605.28
2023-03-02T14:38:30.725Z,98606.09
2023-03-02T14:41:52.865Z,98604.50
2023-03-02T14:45:00.545Z,98600.63
2023-03-02T14:48:06.859Z,98600.91
2023-03-02T14:51:28.400Z,98597.59
2023-03-02T14:54:43.846Z,98594.69
2023-03-02T14:58:01.177Z,98589.97
2023-03-02T15:01:08.624Z,98588.00
2023-03-02T15:04:15.124Z,98584.88
2023-03-02T15:07:27.714Z,98585.91
2023-03-02T15:10:34.841Z,98580.50
2023-03-02T15:13:45.724Z,98578.38
2023-03-02T15:16:52.600Z,98585.63
2023-03-02T15:19:58.822Z,98584.69
2023-03-02T15:23:05.853Z,98581.28
2023-03-02T15:26:14.920Z,98589.50
2023-03-02T15:29:24.907Z,98582.97
2023-03-02T15:32:30.798Z,98586.56
2023-03-02T15:35:37.431Z,98597.41
2023-03-02T15:38:43.449Z,98591.59
2023-03-02T15:41:50.137Z,98593.97
2023-03-02T15:44:58.636Z,98599.94
2023-03-02T15:48:05.280Z,98593.00
2023-03-02T15:51:12.940Z,98590.97
2023-03-02T15:54:20.997Z,98596.00
2023-03-02T15:57:26.823Z,98590.16
2023-03-02T16:00:37.968Z,98591.69
2023-03-02T16:03:43.842Z,98586.94
2023-03-02T16:06:50.688Z,98589.06
2023-03-02T16:09:56.796Z,98593.47
2023-03-02T16:13:04.737Z,98594.69
2023-03-02T16:16:13.553Z,98595.63
2023-03-02T16:19:22.011Z,98594.28
2023-03-02T16:22:28.013Z,98592.56
2023-03-02T16:25:34.808Z,98598.88
2023-03-02T16:28:40.700Z,98594.94
2023-03-02T16:31:51.636Z,98599.59
2023-03-02T16:34:58.049Z,98594.47
2023-03-02T16:38:05.015Z,98602.97
2023-03-02T16:41:19.219Z,98597.00
2023-03-02T16:44:25.896Z,98607.81
2023-03-02T16:47:34.515Z,98612.06
2023-03-02T16:50:41.614Z,98603.28
2023-03-02T16:53:48.229Z,98605.94
2023-03-02T16:56:54.897Z,98611.06
2023-03-02T17:00:05.772Z,98616.69
2023-03-02T17:03:15.151Z,98618.06
2023-03-02T17:06:30.296Z,98628.75
2023-03-02T17:09:41.442Z,98630.59
2023-03-02T17:12:50.266Z,98628.66
2023-03-02T17:15:57.751Z,98642.44
2023-03-02T17:19:06.208Z,98636.69
2023-03-02T17:22:12.990Z,98636.50
2023-03-02T17:25:19.229Z,98638.25
2023-03-02T17:28:26.666Z,98645.94
2023-03-02T17:31:32.584Z,98649.22
2023-03-02T17:34:43.516Z,98639.22
2023-03-02T17:37:49.609Z,98640.66
2023-03-02T17:40:56.188Z,98644.56
2023-03-02T17:44:02.610Z,98646.56
2023-03-02T17:47:13.236Z,98647.59
2023-03-02T17:50:22.390Z,98654.88
2023-03-02T17:53:28.900Z,98649.13
2023-03-02T17:56:34.824Z,98653.38
2023-03-02T17:59:43.106Z,98652.03
2023-03-02T18:02:49.367Z,98646.88
2023-03-02T18:05:58.763Z,98660.06
2023-03-02T18:09:08.204Z,98660.63
2023-03-02T18:12:14.793Z,98658.09
2023-03-02T18:15:20.792Z,98651.97
2023-03-02T18:18:27.857Z,98642.25
2023-03-02T18:21:36.889Z,98655.19
2023-03-02T18:24:43.447Z,98639.25
2023-03-02T18:27:49.620Z,98651.06
2023-03-02T18:30:56.228Z,98645.84
2023-03-02T18:34:02.177Z,98656.47
2023-03-02T18:37:11.793Z,98654.44
2023-03-02T18:40:18.510Z,98657.78
2023-03-02T18:43:25.137Z,98665.41
2023-03-02T18:46:35.058Z,98658.28
2023-03-02T18:49:42.774Z,98658.34
2023-03-02T18:52:53.073Z,98660.63
2023-03-02T18:55:59.927Z,98663.84
2023-03-02T18:59:07.391Z,98664.09
2023-03-02T19:02:17.242Z,98673.09
2023-03-02T19:05:27.092Z,98676.31
2023-03-02T19:08:37.229Z,98673.47
2023-03-02T19:11:43.154Z,98676.78
2023-03-02T19:14:50.074Z,98669.38
2023-03-02T19:17:57.369Z,98678.47
2023-03-02T19:21:05.041Z,98684.09
2023-03-02T19:24:13.773Z,98673.94
2023-03-02T19:27:20.494Z,98672.28
2023-03-02T19:30:30.069Z,98677.38
2023-03-02T19:33:36.955Z,98674.78
2023-03-02T19:36:42.900Z,98672.16
2023-03-02T19:39:52.596Z,98666.38
2023-03-02T19:42:58.820Z,98674.63
2023-03-02T19:46:05.616Z,98668.34
2023-03-02T19:49:11.599Z,98667.53
2023-03-02T19:52:18.594Z,98670.53
2023-03-02T19:55:28.952Z,98664.19
2023-03-02T19:58:35.945Z,98671.34
2023-03-02T20:01:42.245Z,98662.81
2023-03-02T20:04:51.078Z,98671.34
2023-03-02T20:07:58.027Z,98671.19
2023-03-02T20:11:07.957Z,98680.28
2023-03-02T20:14:27.625Z,98677.38
2023-03-02T20:17:39.750Z,98674.78
2023-03-02T20:20:47.403Z,98665.44
2023-03-02T20:23:54.752Z,98668.88
2023-03-02T20:27:03.727Z,98665.72
2023-03-02T20:30:21.631Z,98668.19
2023-03-02T20:33:32.456Z,98629.03
2023-03-02T20:36:40.988Z,98660.88
2023-03-02T20:39:49.869Z,98659.25
2023-03-02T20:42:59.254Z,98665.81
2023-03-02T20:46:05.969Z,98671.03
2023-03-02T20:49:15.992Z,98666.34
2023-03-02T20:52:21.830Z,98673.34
2023-03-02T20:55:29.822Z,98675.78
2023-03-02T20:58:41.315Z,98670.41
2023-03-02T21:01:48.185Z,98663.00
2023-03-02T21:04:54.429Z,98659.69
2023-03-02T21:08:01.608Z,98654.78
2023-03-02T21:11:08.098Z,98661.06
2023-03-02T21:14:17.565Z,98662.28
2023-03-02T21:17:24.471Z,98662.00
2023-03-02T21:20:36.040Z,98656.78
2023-03-02T21:23:42.747Z,98652.34
2023-03-02T21:26:52.279Z,98638.34
2023-03-02T21:30:03.456Z,98650.66
2023-03-02T21:33:10.572Z,98645.84
2023-03-02T21:36:22.360Z,98643.84
2023-03-02T21:39:29.444Z,98644.31
2023-03-02T21:42:35.317Z,98641.00
2023-03-02T21:45:45.300Z,98633.72
2023-03-02T21:48:53.625Z,98631.81
2023-03-02T21:52:00.756Z,98635.69
2023-03-02T21:55:06.976Z,98625.09
2023-03-02T21:58:13.637Z,98638.25
2023-03-02T22:01:22.251Z,98595.06
2023-03-02T22:04:28.939Z,98599.47
2023-03-02T22:07:35.075Z,98560.13
2023-03-02T22:10:45.631Z,98561.91
2023-03-02T22:13:54.077Z,98563.66
2023-03-02T22:17:03.695Z,98614.38
2023-03-02T22:20:20.596Z,98567.59
2023-03-02T22:23:29.431Z,98532.22
2023-03-02T22:26:35.851Z,98551.06
2023-03-02T22:29:46.859Z,98547.50
2023-03-02T22:32:58.385Z,98581.56
2023-03-02T22:36:19.118Z,98549.41
2023-03-02T22:39:36.355Z,98534.47
2023-03-02T22:42:44.036Z,98539.34
2023-03-02T22:45:51.195Z,98614.50
2023-03-02T22:49:02.606Z,98594.88
2023-03-02T22:52:21.170Z,98552.41
2023-03-02T22:55:45.137Z,98553.22
2023-03-02T22:58:53.739Z,98605.03
2023-03-02T23:02:05.435Z,98613.53
2023-03-02T23:05:29.846Z,98615.72
2023-03-02T23:08:36.598Z,98604.75
2023-03-02T23:11:45.118Z,98605.16
2023-03-02T23:14:54.546Z,98601.94
2023-03-02T23:18:01.608Z,98602.91
2023-03-02T23:21:24.174Z,98601.72
2023-03-02T23:24:30.125Z,98603.19
2023-03-02T23:27:36.790Z,98583.00
2023-03-02T23:30:42.763Z,98569.34
2023-03-02T23:33:55.808Z,98578.81
2023-03-02T23:37:10.240Z,98492.06
2023-03-02T23:40:23.101Z,98535.22
2023-03-02T23:43:29.266Z,98534.34
2023-03-02T23:46:36.714Z,98577.13
2023-03-02T23:49:42.617Z,98561.44
2023-03-02T23:52:51.858Z,98569.63
2023-03-02T23:55:58.815Z,98574.59
2023-03-02T23:59:05.545Z,98565.72
